createdAt,value
2023-03-10T00:00:35.340Z,82.19
2023-03-10T00:03:01.912Z,82.61
2023-03-10T00:05:28.444Z,83.71
2023-03-10T00:07:55.064Z,83.33
2023-03-10T00:10:21.849Z,83.20
2023-03-10T00:12:48.356Z,83.00
2023-03-10T00:15:14.961Z,83.77
2023-03-10T00:17:41.787Z,83.47
2023-03-10T00:20:12.006Z,83.63
2023-03-10T00:22:44.138Z,82.84
2023-03-10T00:25:10.969Z,82.82
2023-03-10T00:27:37.551Z,82.84
2023-03-10T00:30:05.008Z,83.21
2023-03-10T00:32:31.701Z,83.21
2023-03-10T00:34:58.296Z,82.83
2023-03-10T00:37:24.854Z,83.66
2023-03-10T00:39:52.685Z,83.84
2023-03-10T00:42:19.658Z,83.35
2023-03-10T00:44:46.749Z,83.96
2023-03-10T00:47:13.355Z,83.47
2023-03-10T00:49:39.967Z,83.53
2023-03-10T00:52:06.631Z,84.56
2023-03-10T00:54:33.168Z,84.18
2023-03-10T00:56:59.660Z,83.83
2023-03-10T00:59:26.246Z,84.60
2023-03-10T01:01:52.842Z,83.74
2023-03-10T01:04:20.016Z,84.30
2023-03-10T01:06:47.687Z,83.61
2023-03-10T01:09:14.538Z,83.37
2023-03-10T01:11:41.142Z,82.97
2023-03-10T01:14:11.648Z,82.90
2023-03-10T01:16:38.268Z,82.63
2023-03-10T01:19:04.869Z,82.81
2023-03-10T01:21:34.671Z,83.15
2023-03-10T01:24:02.312Z,82.49
2023-03-10T01:26:30.105Z,81.95
2023-03-10T01:28:56.744Z,81.73
2023-03-10T01:31:23.698Z,82.04
2023-03-10T01:33:50.226Z,81.86
2023-03-10T01:36:20.075Z,81.63
2023-03-10T01:38:47.282Z,81.63
2023-03-10T01:41:14.863Z,81.25
2023-03-10T01:43:43.421Z,82.18
2023-03-10T01:46:31.797Z,81.47
2023-03-10T01:49:12.406Z,82.61
2023-03-10T01:51:42.829Z,82.89
2023-03-10T01:54:13.965Z,83.49
2023-03-10T01:56:41.472Z,82.92
2023-03-10T01:59:09.357Z,83.34
2023-03-10T02:01:36.782Z,83.49
2023-03-10T02:04:13.886Z,83.29
2023-03-10T02:06:42.093Z,83.15
2023-03-10T02:09:09.436Z,82.82
2023-03-10T02:11:37.764Z,83.12
2023-03-10T02:14:06.421Z,82.92
2023-03-10T02:16:33.798Z,82.73
2023-03-10T02:19:00.567Z,83.13
2023-03-10T02:21:30.861Z,83.05
2023-03-10T02:24:19.521Z,82.51
2023-03-10T02:26:54.834Z,81.89
2023-03-10T02:29:30.895Z,82.01
2023-03-10T02:31:58.817Z,81.77
2023-03-10T02:34:26.904Z,81.66
2023-03-10T02:36:53.612Z,81.18
2023-03-10T02:39:20.250Z,81.20
2023-03-10T02:41:46.865Z,81.70
2023-03-10T02:44:18.580Z,81.60
2023-03-10T02:46:45.170Z,80.83
2023-03-10T02:49:12.548Z,80.35
2023-03-10T02:51:45.028Z,80.31
2023-03-10T02:54:12.381Z,79.95
2023-03-10T02:56:39.369Z,79.88
2023-03-10T02:59:06.995Z,79.87
2023-03-10T03:01:34.347Z,80.71
2023-03-10T03:04:01.561Z,80.21
2023-03-10T03:06:28.949Z,80.68
2023-03-10T03:08:56.089Z,80.98
2023-03-10T03:11:22.837Z,81.19
2023-03-10T03:13:49.363Z,81.27
2023-03-10T03:16:15.988Z,80.85
2023-03-10T03:18:42.628Z,81.87
2023-03-10T03:21:15.982Z,81.76
2023-03-10T03:23:43.122Z,81.90
2023-03-10T03:26:21.734Z,81.70
2023-03-10T03:28:48.519Z,81.58
2023-03-10T03:31:23.664Z,82.13
2023-03-10T03:33:50.944Z,82.89
2023-03-10T03:36:18.558Z,82.61
2023-03-10T03:38:45.160Z,83.05
2023-03-10T03:41:11.711Z,82.89
2023-03-10T03:43:38.245Z,82.65
2023-03-10T03:46:05.155Z,83.47
2023-03-10T03:48:31.768Z,83.76
2023-03-10T03:50:58.390Z,82.37
2023-03-10T03:53:25.064Z,81.46
2023-03-10T03:55:51.685Z,80.96
2023-03-10T03:58:19.115Z,80.31
2023-03-10T04:00:46.081Z,80.14
2023-03-10T04:03:12.791Z,79.51
2023-03-10T04:05:40.070Z,79.54
2023-03-10T04:08:07.134Z,79.39
2023-03-10T04:10:33.775Z,78.35
2023-03-10T04:13:00.562Z,78.25
2023-03-10T04:15:27.223Z,78.26
2023-03-10T04:17:53.839Z,78.21
2023-03-10T04:20:20.537Z,78.66
2023-03-10T04:22:47.077Z,79.06
2023-03-10T04:25:13.700Z,78.99
2023-03-10T04:27:40.237Z,79.25
2023-03-10T04:30:07.680Z,79.60
2023-03-10T04:32:34.387Z,80.02
2023-03-10T04:35:01.444Z,80.19
2023-03-10T04:37:28.019Z,80.14
2023-03-10T04:39:54.801Z,80.87
2023-03-10T04:42:21.406Z,81.07
2023-03-10T04:44:47.986Z,81.90
2023-03-10T04:47:14.823Z,82.43
2023-03-10T04:49:41.610Z,82.35
2023-03-10T04:52:08.140Z,82.64
2023-03-10T04:54:34.666Z,82.54
2023-03-10T04:57:01.247Z,83.13
2023-03-10T04:59:27.842Z,83.29
2023-03-10T05:01:54.450Z,84.07
2023-03-10T05:04:21.134Z,83.26
2023-03-10T05:06:51.838Z,83.33
2023-03-10T05:09:18.912Z,83.07
2023-03-10T05:11:45.594Z,81.93
2023-03-10T05:14:12.806Z,82.49
2023-03-10T05:16:39.401Z,81.49
2023-03-10T05:19:05.961Z,81.67
2023-03-10T05:21:32.638Z,81.31
2023-03-10T05:23:59.392Z,81.06
2023-03-10T05:26:26.676Z,81.26
2023-03-10T05:28:53.188Z,80.55
2023-03-10T05:31:26.009Z,80.36
2023-03-10T05:33:53.944Z,80.45
2023-03-10T05:36:20.957Z,80.11
2023-03-10T05:38:47.563Z,79.23
2023-03-10T05:41:14.651Z,79.90
2023-03-10T05:43:41.587Z,80.54
2023-03-10T05:46:08.622Z,79.35
2023-03-10T05:48:35.209Z,79.67
2023-03-10T05:51:07.807Z,78.94
2023-03-10T05:53:35.907Z,79.60
2023-03-10T05:56:08.087Z,78.39
2023-03-10T05:58:35.304Z,75.90
2023-03-10T06:01:02.343Z,76.37
2023-03-10T06:03:30.144Z,76.03
2023-03-10T06:05:57.809Z,76.78
2023-03-10T06:08:25.425Z,76.50
2023-03-10T06:10:52.067Z,75.13
2023-03-10T06:13:20.550Z,75.34
2023-03-10T06:15:55.411Z,74.21
2023-03-10T06:18:22.585Z,74.40
2023-03-10T06:20:49.838Z,74.43
2023-03-10T06:23:17.957Z,75.40
2023-03-10T06:25:45.000Z,75.57
2023-03-10T06:28:12.550Z,75.43
2023-03-10T06:30:39.127Z,76.34
2023-03-10T06:33:05.713Z,75.57
2023-03-10T06:35:32.426Z,76.33
2023-03-10T06:37:58.992Z,77.19
2023-03-10T06:40:25.632Z,76.49
2023-03-10T06:42:52.155Z,77.19
2023-03-10T06:45:18.768Z,76.70
2023-03-10T06:47:45.654Z,76.20
2023-03-10T06:50:13.522Z,76.54
2023-03-10T06:52:40.199Z,77.36
2023-03-10T06:55:07.167Z,78.15
2023-03-10T06:57:34.255Z,78.89
2023-03-10T07:00:00.855Z,79.94
2023-03-10T07:02:27.568Z,80.82
2023-03-10T07:04:54.383Z,80.83
2023-03-10T07:07:21.048Z,81.29
2023-03-10T07:09:47.626Z,81.36
2023-03-10T07:12:14.166Z,81.44
2023-03-10T07:14:40.719Z,81.90
2023-03-10T07:17:07.315Z,82.02
2023-03-10T07:19:33.964Z,81.96
2023-03-10T07:22:00.542Z,82.30
2023-03-10T07:24:27.179Z,81.94
2023-03-10T07:26:54.167Z,82.17
2023-03-10T07:29:20.731Z,82.07
2023-03-10T07:31:47.276Z,82.38
2023-03-10T07:34:14.129Z,82.63
2023-03-10T07:36:40.671Z,82.66
2023-03-10T07:39:07.338Z,82.37
2023-03-10T07:41:33.914Z,82.07
2023-03-10T07:44:00.600Z,81.93
2023-03-10T07:46:27.369Z,81.83
2023-03-10T07:48:55.888Z,81.92
2023-03-10T07:51:22.599Z,82.58
2023-03-10T07:53:49.141Z,82.47
2023-03-10T07:56:15.853Z,82.48
2023-03-10T07:58:42.640Z,82.57
2023-03-10T08:01:15.140Z,82.76
2023-03-10T08:03:41.861Z,83.20
2023-03-10T08:06:08.667Z,82.97
2023-03-10T08:08:35.631Z,83.33
2023-03-10T08:11:09.641Z,83.21
2023-03-10T08:13:38.310Z,83.74
2023-03-10T08:16:05.860Z,83.85
2023-03-10T08:18:32.579Z,83.99
2023-03-10T08:20:59.912Z,83.66
2023-03-10T08:23:26.479Z,83.89
2023-03-10T08:25:53.000Z,83.24
2023-03-10T08:28:19.671Z,83.31
2023-03-10T08:31:03.084Z,83.23
2023-03-10T08:33:31.151Z,83.84
2023-03-10T08:36:05.384Z,83.22
2023-03-10T08:38:32.543Z,82.83
2023-03-10T08:41:15.856Z,82.61
2023-03-10T08:43:42.925Z,82.12
2023-03-10T08:46:10.504Z,82.03
2023-03-10T08:48:37.795Z,81.54
2023-03-10T08:51:05.516Z,82.11
2023-03-10T08:53:34.714Z,82.17
2023-03-10T08:56:01.291Z,82.16
2023-03-10T08:58:27.892Z,82.00
2023-03-10T09:00:54.395Z,81.74
2023-03-10T09:03:20.991Z,82.62
2023-03-10T09:05:47.625Z,82.64
2023-03-10T09:08:14.480Z,82.04
2023-03-10T09:10:44.623Z,81.59
2023-03-10T09:13:14.297Z,81.50
2023-03-10T09:15:42.068Z,81.96
2023-03-10T09:18:09.339Z,81.98
2023-03-10T09:20:36.863Z,81.49
2023-03-10T09:23:03.992Z,81.35
2023-03-10T09:25:30.772Z,80.81
2023-03-10T09:27:58.220Z,80.65
2023-03-10T09:30:25.295Z,80.92
2023-03-10T09:32:52.242Z,80.49
2023-03-10T09:35:19.968Z,81.03
2023-03-10T09:37:46.521Z,81.89
2023-03-10T09:40:17.932Z,82.41
2023-03-10T09:42:48.756Z,83.15
2023-03-10T09:45:35.404Z,82.61
2023-03-10T09:48:20.028Z,83.14
2023-03-10T09:50:52.563Z,82.70
2023-03-10T09:53:38.985Z,82.41
2023-03-10T09:56:29.886Z,82.25
2023-03-10T09:59:02.328Z,82.32
2023-03-10T10:01:32.545Z,82.56
2023-03-10T10:04:13.055Z,81.58
2023-03-10T10:06:43.268Z,82.61
2023-03-10T10:09:24.238Z,82.50
2023-03-10T10:11:50.832Z,82.48
2023-03-10T10:14:31.853Z,82.75
2023-03-10T10:17:20.283Z,82.44
2023-03-10T10:19:47.921Z,83.17
2023-03-10T10:22:32.266Z,83.33
2023-03-10T10:25:14.161Z,82.82
2023-03-10T10:27:42.676Z,83.61
2023-03-10T10:30:35.414Z,83.03
2023-03-10T10:33:13.002Z,83.41
2023-03-10T10:35:46.402Z,83.11
2023-03-10T10:38:15.597Z,83.48
2023-03-10T10:41:07.684Z,83.36
2023-03-10T10:43:42.588Z,84.69
2023-03-10T10:46:09.989Z,83.55
2023-03-10T10:48:46.508Z,83.10
2023-03-10T10:51:28.938Z,82.91
2023-03-10T10:54:01.123Z,82.43
2023-03-10T10:56:29.093Z,83.28
2023-03-10T10:59:04.795Z,83.59
2023-03-10T11:01:51.945Z,84.15
2023-03-10T11:04:19.378Z,83.52
2023-03-10T11:06:46.602Z,84.46
2023-03-10T11:09:21.237Z,85.41
2023-03-10T11:11:55.954Z,85.41
2023-03-10T11:14:49.866Z,85.85
2023-03-10T11:17:16.450Z,86.27
2023-03-10T11:20:00.756Z,86.36
2023-03-10T11:22:52.050Z,85.95
2023-03-10T11:25:37.558Z,86.05
2023-03-10T11:28:16.392Z,87.66
2023-03-10T11:31:14.288Z,88.18
2023-03-10T11:34:08.971Z,88.78
2023-03-10T11:36:55.798Z,89.15
2023-03-10T11:39:45.645Z,89.50
2023-03-10T11:42:21.345Z,89.28
2023-03-10T11:44:54.619Z,89.40
2023-03-10T11:47:33.520Z,89.71
2023-03-10T11:50:18.633Z,89.72
2023-03-10T11:52:46.496Z,89.87
2023-03-10T11:55:21.742Z,89.51
2023-03-10T11:57:54.412Z,87.50
2023-03-10T12:00:43.801Z,87.75
2023-03-10T12:03:19.685Z,87.56
2023-03-10T12:05:52.448Z,87.75
2023-03-10T12:08:23.568Z,87.87
2023-03-10T12:10:51.599Z,88.08
2023-03-10T12:13:23.693Z,88.40
2023-03-10T12:15:54.625Z,88.52
2023-03-10T12:18:21.298Z,88.32
2023-03-10T12:21:28.302Z,88.03
2023-03-10T12:23:57.636Z,87.52
2023-03-10T12:26:39.404Z,87.61
2023-03-10T12:29:21.236Z,88.07
2023-03-10T12:31:51.575Z,88.25
2023-03-10T12:34:28.093Z,88.05
2023-03-10T12:37:06.787Z,88.00
2023-03-10T12:39:42.788Z,87.88
2023-03-10T12:42:32.536Z,88.22
2023-03-10T12:45:21.423Z,88.34
2023-03-10T12:47:57.541Z,87.75
2023-03-10T12:50:41.071Z,86.79
2023-03-10T12:53:30.473Z,86.86
2023-03-10T12:56:12.271Z,86.78
2023-03-10T12:58:46.078Z,87.72
2023-03-10T13:01:17.251Z,87.67
2023-03-10T13:03:48.570Z,88.05
2023-03-10T13:06:15.130Z,88.46
2023-03-10T13:09:10.615Z,88.42
2023-03-10T13:11:42.936Z,88.84
2023-03-10T13:14:19.981Z,86.67
2023-03-10T13:16:58.483Z,86.48
2023-03-10T13:19:27.616Z,85.46
2023-03-10T13:21:55.116Z,85.33
2023-03-10T13:24:23.848Z,84.25
2023-03-10T13:27:05.109Z,83.88
2023-03-10T13:29:31.789Z,82.57
2023-03-10T13:31:58.452Z,79.67
2023-03-10T13:34:28.919Z,76.96
2023-03-10T13:37:06.415Z,76.57
2023-03-10T13:39:33.524Z,76.28
2023-03-10T13:42:02.233Z,75.71
2023-03-10T13:44:34.053Z,75.14
2023-03-10T13:47:04.474Z,75.24
2023-03-10T13:49:35.240Z,74.97
2023-03-10T13:52:08.129Z,75.71
2023-03-10T13:54:36.504Z,75.10
2023-03-10T13:57:22.007Z,74.95
2023-03-10T13:59:49.950Z,75.29
2023-03-10T14:02:40.819Z,77.01
2023-03-10T14:05:28.255Z,77.05
2023-03-10T14:08:01.267Z,76.96
2023-03-10T14:10:27.770Z,75.47
2023-03-10T14:12:54.875Z,75.35
2023-03-10T14:15:32.498Z,74.70
2023-03-10T14:18:08.268Z,74.57
2023-03-10T14:20:43.431Z,74.67
2023-03-10T14:23:19.133Z,72.91
2023-03-10T14:25:46.877Z,73.32
2023-03-10T14:28:19.036Z,72.86
2023-03-10T14:30:45.609Z,72.53
2023-03-10T14:33:14.350Z,72.84
2023-03-10T14:35:41.756Z,73.61
2023-03-10T14:38:09.041Z,74.59
2023-03-10T14:40:41.319Z,74.61
2023-03-10T14:43:15.887Z,74.43
2023-03-10T14:45:44.452Z,74.80
2023-03-10T14:48:18.221Z,74.99
2023-03-10T14:50:45.917Z,74.63
2023-03-10T14:53:15.476Z,73.77
2023-03-10T14:55:43.577Z,73.99
2023-03-10T14:58:16.611Z,72.37
2023-03-10T15:00:43.351Z,72.45
2023-03-10T15:03:11.717Z,73.84
2023-03-10T15:05:48.143Z,74.15
2023-03-10T15:08:15.781Z,74.06
2023-03-10T15:10:46.657Z,73.76
2023-03-10T15:13:13.727Z,73.92
2023-03-10T15:15:42.658Z,73.72
2023-03-10T15:18:14.696Z,72.70
2023-03-10T15:20:41.275Z,70.88
2023-03-10T15:23:08.029Z,70.55
2023-03-10T15:25:34.776Z,70.77
2023-03-10T15:28:01.507Z,70.76
2023-03-10T15:30:36.286Z,71.35
2023-03-10T15:33:04.194Z,71.36
2023-03-10T15:35:31.007Z,71.97
2023-03-10T15:37:58.266Z,72.68
2023-03-10T15:40:27.334Z,72.48
2023-03-10T15:42:57.521Z,72.22
2023-03-10T15:45:25.722Z,73.32
2023-03-10T15:47:52.659Z,73.73
2023-03-10T15:50:20.870Z,74.06
2023-03-10T15:52:49.545Z,73.93
2023-03-10T15:55:16.840Z,73.94
2023-03-10T15:57:44.838Z,73.52
2023-03-10T16:00:12.716Z,74.07
2023-03-10T16:02:39.510Z,73.68
2023-03-10T16:05:06.411Z,73.52
2023-03-10T16:07:35.643Z,73.10
2023-03-10T16:10:02.200Z,73.56
2023-03-10T16:12:28.871Z,72.88
2023-03-10T16:14:55.877Z,72.19
2023-03-10T16:17:23.509Z,71.31
2023-03-10T16:19:50.418Z,71.44
2023-03-10T16:22:17.331Z,72.50
2023-03-10T16:24:43.937Z,73.16
2023-03-10T16:27:10.622Z,73.94
2023-03-10T16:29:40.104Z,72.93
2023-03-10T16:32:08.968Z,73.49
2023-03-10T16:34:36.246Z,73.13
2023-03-10T16:37:02.966Z,72.89
2023-03-10T16:39:33.037Z,72.41
2023-03-10T16:41:59.802Z,73.10
2023-03-10T16:44:26.518Z,72.34
2023-03-10T16:46:53.331Z,73.29
2023-03-10T16:49:19.948Z,73.28
2023-03-10T16:51:47.538Z,73.58
2023-03-10T16:54:19.672Z,73.49
2023-03-10T16:56:51.534Z,73.15
2023-03-10T16:59:20.654Z,73.04
2023-03-10T17:01:48.041Z,73.22
2023-03-10T17:04:14.983Z,72.91
2023-03-10T17:06:42.075Z,73.22
2023-03-10T17:09:09.563Z,72.76
2023-03-10T17:11:39.686Z,73.45
2023-03-10T17:14:11.218Z,74.32
2023-03-10T17:16:38.637Z,75.40
2023-03-10T17:19:13.144Z,76.80
2023-03-10T17:21:43.821Z,79.03
2023-03-10T17:24:10.727Z,78.89
2023-03-10T17:26:37.376Z,78.64
2023-03-10T17:29:04.684Z,78.37
2023-03-10T17:31:32.045Z,78.24
2023-03-10T17:34:04.773Z,78.14
2023-03-10T17:36:31.725Z,77.87
2023-03-10T17:39:00.749Z,78.01
2023-03-10T17:41:29.139Z,76.27
2023-03-10T17:43:56.772Z,75.58
2023-03-10T17:46:26.905Z,74.16
2023-03-10T17:48:54.045Z,74.01
2023-03-10T17:51:25.927Z,73.48
2023-03-10T17:53:53.540Z,72.62
2023-03-10T17:56:21.974Z,72.44
2023-03-10T17:58:49.574Z,71.66
2023-03-10T18:01:19.796Z,71.17
2023-03-10T18:03:48.155Z,71.35
2023-03-10T18:06:22.368Z,70.09
2023-03-10T18:08:50.215Z,68.10
2023-03-10T18:11:18.821Z,68.12
2023-03-10T18:13:45.492Z,66.83
2023-03-10T18:16:20.166Z,66.98
2023-03-10T18:18:47.209Z,67.44
2023-03-10T18:21:15.157Z,67.26
2023-03-10T18:23:42.062Z,67.60
2023-03-10T18:26:10.681Z,67.15
2023-03-10T18:28:38.420Z,66.18
2023-03-10T18:31:14.174Z,66.18
2023-03-10T18:33:40.736Z,66.24
2023-03-10T18:36:07.894Z,67.49
2023-03-10T18:38:34.764Z,67.49
2023-03-10T18:41:03.007Z,67.82
2023-03-10T18:43:32.098Z,68.44
2023-03-10T18:45:58.783Z,67.82
2023-03-10T18:48:28.406Z,68.17
2023-03-10T18:50:56.597Z,68.84
2023-03-10T18:53:25.467Z,68.73
2023-03-10T18:55:52.942Z,68.80
2023-03-10T18:58:19.940Z,69.38
2023-03-10T19:00:46.691Z,69.65
2023-03-10T19:03:13.903Z,69.36
2023-03-10T19:05:41.876Z,69.37
2023-03-10T19:08:10.396Z,70.33
2023-03-10T19:10:39.386Z,69.87
2023-03-10T19:13:07.448Z,70.33
2023-03-10T19:15:34.687Z,70.17
2023-03-10T19:18:01.302Z,70.21
2023-03-10T19:20:27.881Z,70.08
2023-03-10T19:22:54.408Z,69.94
2023-03-10T19:25:23.162Z,70.26
2023-03-10T19:27:49.742Z,70.42
2023-03-10T19:30:20.315Z,69.99
2023-03-10T19:32:48.039Z,69.17
2023-03-10T19:35:16.061Z,69.00
2023-03-10T19:37:46.163Z,68.23
2023-03-10T19:40:15.903Z,68.14
2023-03-10T19:42:43.015Z,68.69
2023-03-10T19:45:18.297Z,68.68
2023-03-10T19:47:46.283Z,68.53
2023-03-10T19:50:16.319Z,67.75
2023-03-10T19:52:51.777Z,68.00
2023-03-10T19:55:23.067Z,67.76
2023-03-10T19:57:51.631Z,68.05
2023-03-10T20:00:24.937Z,68.41
2023-03-10T20:02:55.151Z,68.91
2023-03-10T20:05:22.842Z,69.02
2023-03-10T20:07:49.405Z,69.77
2023-03-10T20:10:17.811Z,70.29
2023-03-10T20:12:47.076Z,70.66
2023-03-10T20:15:13.791Z,70.49
2023-03-10T20:17:40.323Z,71.23
2023-03-10T20:20:12.668Z,71.42
2023-03-10T20:22:42.005Z,71.60
2023-03-10T20:25:10.882Z,71.86
2023-03-10T20:27:38.422Z,72.03
2023-03-10T20:30:10.593Z,71.87
2023-03-10T20:32:37.220Z,71.86
2023-03-10T20:35:05.217Z,71.91
2023-03-10T20:37:33.716Z,72.40
2023-03-10T20:40:00.255Z,72.64
2023-03-10T20:42:26.870Z,72.47
2023-03-10T20:44:53.403Z,72.25
2023-03-10T20:47:19.891Z,71.72
2023-03-10T20:49:47.083Z,72.22
2023-03-10T20:52:13.603Z,71.92
2023-03-10T20:54:40.321Z,71.96
2023-03-10T20:57:08.189Z,71.21
2023-03-10T20:59:36.639Z,71.11
2023-03-10T21:02:05.370Z,71.36
2023-03-10T21:04:32.908Z,71.39
2023-03-10T21:06:59.510Z,71.10
2023-03-10T21:09:26.110Z,71.62
2023-03-10T21:11:52.649Z,71.95
2023-03-10T21:14:19.340Z,71.73
2023-03-10T21:16:46.761Z,72.25
2023-03-10T21:19:13.860Z,72.23
2023-03-10T21:21:40.869Z,72.25
2023-03-10T21:24:07.537Z,73.26
2023-03-10T21:26:34.074Z,72.64
2023-03-10T21:29:00.962Z,72.97
2023-03-10T21:31:27.666Z,73.31
2023-03-10T21:33:54.377Z,73.56
2023-03-10T21:36:23.203Z,73.79
2023-03-10T21:38:51.051Z,73.87
2023-03-10T21:41:20.295Z,74.74
2023-03-10T21:43:46.881Z,74.90
2023-03-10T21:46:13.679Z,75.31
2023-03-10T21:48:40.256Z,75.73
2023-03-10T21:51:09.749Z,75.11
2023-03-10T21:53:36.431Z,74.70
2023-03-10T21:56:03.147Z,74.55
2023-03-10T21:58:29.711Z,74.64
2023-03-10T22:00:56.805Z,74.67
2023-03-10T22:03:23.677Z,74.62
2023-03-10T22:05:50.518Z,74.76
2023-03-10T22:08:17.026Z,74.43
2023-03-10T22:10:43.699Z,73.96
2023-03-10T22:13:10.234Z,73.53
2023-03-10T22:15:36.814Z,74.04
2023-03-10T22:18:03.752Z,73.70
2023-03-10T22:20:30.442Z,73.30
2023-03-10T22:22:57.286Z,72.83
2023-03-10T22:25:24.540Z,73.06
2023-03-10T22:27:54.035Z,72.23
2023-03-10T22:30:22.239Z,71.74
2023-03-10T22:32:49.665Z,70.95
2023-03-10T22:35:16.835Z,71.22
2023-03-10T22:37:43.909Z,71.32
2023-03-10T22:40:16.205Z,71.04
2023-03-10T22:42:44.532Z,71.33
2023-03-10T22:45:19.227Z,71.01
2023-03-10T22:47:46.375Z,71.04
2023-03-10T22:50:16.113Z,70.65
2023-03-10T22:52:42.946Z,70.97
2023-03-10T22:55:13.746Z,70.67
2023-03-10T22:57:40.711Z,70.43
2023-03-10T23:00:11.029Z,70.71
2023-03-10T23:02:37.664Z,70.90
2023-03-10T23:05:04.567Z,71.24
2023-03-10T23:07:31.177Z,71.01
2023-03-10T23:09:57.734Z,71.22
2023-03-10T23:12:24.560Z,71.80
2023-03-10T23:14:51.489Z,71.90
2023-03-10T23:17:18.036Z,72.43
2023-03-10T23:19:44.584Z,72.89
2023-03-10T23:22:11.128Z,73.42
2023-03-10T23:24:37.683Z,73.66
2023-03-10T23:27:04.394Z,74.02
2023-03-10T23:29:30.900Z,73.98
2023-03-10T23:31:57.432Z,74.43
2023-03-10T23:34:24.023Z,74.18
2023-03-10T23:36:50.533Z,74.02
2023-03-10T23:39:17.182Z,74.33
2023-03-10T23:41:43.736Z,74.17
2023-03-10T23:44:10.272Z,74.12
2023-03-10T23:46:36.812Z,74.09
2023-03-10T23:49:03.346Z,74.20
2023-03-10T23:51:30.797Z,74.64
2023-03-10T23:53:57.314Z,74.48
2023-03-10T23:56:23.837Z,74.28
2023-03-10T23:58:50.345Z,74.56
